KECS

Mondell Field Airport

Newcastle, Wyoming, USA
METAR KECS 230955Z AUTO 34005KT 10SM CLR M20/M23 A3009 RMK AO2
Observed Flight Rules
Feb-23 @ 09:55 UTC (29 minutes ago) Visual Flight Rules
Wind Visibility Clouds
340° at 5 knots 10 miles
  • Clear skies
Temperatures Readings
Current -20°C / -4°F
Dewpoint -23°C / -9°F
Humidity 77%
Altimeter 30.09" Hg
Pressure 1019 hPa
Elevation 1273
METAR KECS 230955Z AUTO 34005KT 10SM CLR M20/M23 A3009 RMK AO2
Observed Flight Rules
Feb-23 @ 09:55 UTC
(29 minutes ago)
VFR
Wind Visibility
340° at 5 knots 10 miles
Clouds
  • Clear skies
Temperature Dewpoint
-20°C / -4°F -23°C / -9°F
Humidity Altimeter Pressure
77% 30.09" Hg 1019 hPa